Terminal Aerodrome Forecast
Issued by NWS Paducah, KY

Home | Current Version | Previous Version | Text Only | Print | Product List | Glossary On
Versions: 1 2 3 4 5 6 7 8 9 10 11 12 13 14 15 16 17 18 19 20 21
000
FTUS43 KPAH 190900 AAA
TAFPAH
TAF AMD
KPAH 190938Z 1910/2006 00000KT 1/4SM FG VV002
      TEMPO 1910/1912 2SM BR SCT200
     FM191200 00000KT 3SM BR SCT200
      TEMPO 1912/1913 1/2SM FG VV002
     FM191400 22006KT P6SM SCT050=

USA.gov is the U.S. government's official web portal to all federal, state and local government web resources and services.